sensor_id;sensor_type;location;lat;lon;timestamp;P1;durP1;ratioP1;P2;durP2;ratioP2
15363;SDS011;7781;49.690;6.472;2023-05-24T00:01:00;11.73;;;3.30;;
15363;SDS011;7781;49.690;6.472;2023-05-24T00:03:29;8.57;;;3.40;;
15363;SDS011;7781;49.690;6.472;2023-05-24T00:06:00;12.37;;;2.93;;
15363;SDS011;7781;49.690;6.472;2023-05-24T00:08:29;10.70;;;2.80;;
15363;SDS011;7781;49.690;6.472;2023-05-24T00:11:00;8.63;;;2.50;;
15363;SDS011;7781;49.690;6.472;2023-05-24T00:13:30;5.67;;;2.87;;
15363;SDS011;7781;49.690;6.472;2023-05-24T00:15:59;9.33;;;2.77;;
15363;SDS011;7781;49.690;6.472;2023-05-24T00:18:27;10.20;;;3.53;;
15363;SDS011;7781;49.690;6.472;2023-05-24T00:20:58;16.83;;;3.77;;
15363;SDS011;7781;49.690;6.472;2023-05-24T00:23:28;7.87;;;2.70;;
15363;SDS011;7781;49.690;6.472;2023-05-24T00:25:57;10.03;;;3.20;;
15363;SDS011;7781;49.690;6.472;2023-05-24T00:28:26;10.13;;;3.40;;
15363;SDS011;7781;49.690;6.472;2023-05-24T00:30:58;8.20;;;3.00;;
15363;SDS011;7781;49.690;6.472;2023-05-24T00:33:27;10.33;;;3.30;;
15363;SDS011;7781;49.690;6.472;2023-05-24T00:35:56;10.03;;;2.93;;
15363;SDS011;7781;49.690;6.472;2023-05-24T00:38:25;11.63;;;3.07;;
15363;SDS011;7781;49.690;6.472;2023-05-24T00:40:54;7.10;;;2.67;;
15363;SDS011;7781;49.690;6.472;2023-05-24T00:43:23;11.10;;;2.93;;
15363;SDS011;7781;49.690;6.472;2023-05-24T00:45:56;6.50;;;3.07;;
15363;SDS011;7781;49.690;6.472;2023-05-24T00:48:46;10.90;;;2.90;;
15363;SDS011;7781;49.690;6.472;2023-05-24T00:51:16;7.20;;;3.20;;
15363;SDS011;7781;49.690;6.472;2023-05-24T00:53:46;10.77;;;3.67;;
15363;SDS011;7781;49.690;6.472;2023-05-24T00:56:16;8.93;;;3.50;;
15363;SDS011;7781;49.690;6.472;2023-05-24T00:58:45;12.87;;;3.77;;
15363;SDS011;7781;49.690;6.472;2023-05-24T01:01:15;8.27;;;2.80;;
15363;SDS011;7781;49.690;6.472;2023-05-24T01:03:44;6.67;;;3.00;;
15363;SDS011;7781;49.690;6.472;2023-05-24T01:06:13;21.60;;;3.90;;
15363;SDS011;7781;49.690;6.472;2023-05-24T01:08:47;9.10;;;2.93;;
15363;SDS011;7781;49.690;6.472;2023-05-24T01:11:32;10.70;;;4.47;;
15363;SDS011;7781;49.690;6.472;2023-05-24T01:14:11;10.70;;;3.40;;
15363;SDS011;7781;49.690;6.472;2023-05-24T01:16:52;9.23;;;3.23;;
15363;SDS011;7781;49.690;6.472;2023-05-24T01:19:36;8.10;;;2.83;;
15363;SDS011;7781;49.690;6.472;2023-05-24T01:22:15;12.03;;;3.47;;
15363;SDS011;7781;49.690;6.472;2023-05-24T01:24:58;14.53;;;3.70;;
15363;SDS011;7781;49.690;6.472;2023-05-24T01:27:33;7.50;;;3.17;;
15363;SDS011;7781;49.690;6.472;2023-05-24T01:30:03;9.77;;;3.93;;
15363;SDS011;7781;49.690;6.472;2023-05-24T01:32:34;7.33;;;2.90;;
15363;SDS011;7781;49.690;6.472;2023-05-24T01:35:05;13.23;;;3.33;;
15363;SDS011;7781;49.690;6.472;2023-05-24T01:37:34;6.00;;;2.90;;
15363;SDS011;7781;49.690;6.472;2023-05-24T01:40:03;8.10;;;2.93;;
15363;SDS011;7781;49.690;6.472;2023-05-24T01:42:39;8.17;;;3.40;;
15363;SDS011;7781;49.690;6.472;2023-05-24T01:45:13;7.03;;;3.33;;
15363;SDS011;7781;49.690;6.472;2023-05-24T01:47:54;11.67;;;3.87;;
15363;SDS011;7781;49.690;6.472;2023-05-24T01:50:33;20.87;;;3.87;;
15363;SDS011;7781;49.690;6.472;2023-05-24T01:53:08;9.70;;;3.37;;
15363;SDS011;7781;49.690;6.472;2023-05-24T01:55:41;10.93;;;3.63;;
15363;SDS011;7781;49.690;6.472;2023-05-24T01:58:15;14.83;;;3.80;;
15363;SDS011;7781;49.690;6.472;2023-05-24T02:00:46;6.67;;;3.23;;
15363;SDS011;7781;49.690;6.472;2023-05-24T02:03:14;17.53;;;5.40;;
15363;SDS011;7781;49.690;6.472;2023-05-24T02:05:46;7.13;;;3.20;;
15363;SDS011;7781;49.690;6.472;2023-05-24T02:08:16;9.67;;;3.20;;
15363;SDS011;7781;49.690;6.472;2023-05-24T02:10:45;21.27;;;3.50;;
15363;SDS011;7781;49.690;6.472;2023-05-24T02:13:16;9.97;;;3.70;;
15363;SDS011;7781;49.690;6.472;2023-05-24T02:15:45;14.43;;;4.13;;
15363;SDS011;7781;49.690;6.472;2023-05-24T02:18:18;9.43;;;3.53;;
15363;SDS011;7781;49.690;6.472;2023-05-24T02:20:48;12.20;;;4.40;;
15363;SDS011;7781;49.690;6.472;2023-05-24T02:23:16;10.07;;;3.73;;
15363;SDS011;7781;49.690;6.472;2023-05-24T02:25:46;9.10;;;4.00;;
15363;SDS011;7781;49.690;6.472;2023-05-24T02:28:20;16.80;;;4.10;;
15363;SDS011;7781;49.690;6.472;2023-05-24T02:30:48;11.33;;;3.40;;
15363;SDS011;7781;49.690;6.472;2023-05-24T02:33:17;14.17;;;4.57;;
15363;SDS011;7781;49.690;6.472;2023-05-24T02:35:45;8.80;;;4.13;;
15363;SDS011;7781;49.690;6.472;2023-05-24T02:38:16;6.77;;;3.93;;
15363;SDS011;7781;49.690;6.472;2023-05-24T02:40:44;6.80;;;3.40;;
15363;SDS011;7781;49.690;6.472;2023-05-24T02:43:14;6.33;;;3.70;;
15363;SDS011;7781;49.690;6.472;2023-05-24T02:45:44;14.00;;;4.23;;
15363;SDS011;7781;49.690;6.472;2023-05-24T02:48:14;18.90;;;4.67;;
15363;SDS011;7781;49.690;6.472;2023-05-24T02:50:45;10.50;;;4.50;;
15363;SDS011;7781;49.690;6.472;2023-05-24T02:53:15;16.50;;;4.07;;
15363;SDS011;7781;49.690;6.472;2023-05-24T02:55:46;14.43;;;4.70;;
15363;SDS011;7781;49.690;6.472;2023-05-24T02:58:16;12.80;;;4.03;;
15363;SDS011;7781;49.690;6.472;2023-05-24T03:00:50;9.30;;;3.80;;
15363;SDS011;7781;49.690;6.472;2023-05-24T03:03:20;7.77;;;3.57;;
15363;SDS011;7781;49.690;6.472;2023-05-24T03:05:51;8.17;;;3.93;;
15363;SDS011;7781;49.690;6.472;2023-05-24T03:08:20;14.10;;;4.10;;
15363;SDS011;7781;49.690;6.472;2023-05-24T03:10:52;19.10;;;4.60;;
15363;SDS011;7781;49.690;6.472;2023-05-24T03:13:21;9.37;;;3.90;;
15363;SDS011;7781;49.690;6.472;2023-05-24T03:15:51;13.93;;;3.80;;
15363;SDS011;7781;49.690;6.472;2023-05-24T03:18:21;13.20;;;4.40;;
15363;SDS011;7781;49.690;6.472;2023-05-24T03:20:50;21.03;;;4.37;;
15363;SDS011;7781;49.690;6.472;2023-05-24T03:23:20;12.40;;;4.23;;
15363;SDS011;7781;49.690;6.472;2023-05-24T03:25:49;6.90;;;3.83;;
15363;SDS011;7781;49.690;6.472;2023-05-24T03:28:19;9.63;;;3.93;;
15363;SDS011;7781;49.690;6.472;2023-05-24T03:30:52;13.63;;;3.60;;
15363;SDS011;7781;49.690;6.472;2023-05-24T03:33:23;10.40;;;3.93;;
15363;SDS011;7781;49.690;6.472;2023-05-24T03:35:54;11.33;;;4.57;;
15363;SDS011;7781;49.690;6.472;2023-05-24T03:38:23;9.03;;;4.57;;
15363;SDS011;7781;49.690;6.472;2023-05-24T03:40:54;7.93;;;4.20;;
15363;SDS011;7781;49.690;6.472;2023-05-24T03:43:23;18.27;;;3.93;;
15363;SDS011;7781;49.690;6.472;2023-05-24T03:45:57;9.50;;;3.70;;
15363;SDS011;7781;49.690;6.472;2023-05-24T03:48:26;14.23;;;4.17;;
15363;SDS011;7781;49.690;6.472;2023-05-24T03:50:57;19.30;;;4.80;;
15363;SDS011;7781;49.690;6.472;2023-05-24T03:53:28;10.23;;;4.30;;
15363;SDS011;7781;49.690;6.472;2023-05-24T03:55:58;10.40;;;3.60;;
15363;SDS011;7781;49.690;6.472;2023-05-24T03:58:29;8.47;;;4.10;;
15363;SDS011;7781;49.690;6.472;2023-05-24T04:01:00;12.50;;;3.70;;
15363;SDS011;7781;49.690;6.472;2023-05-24T04:03:29;10.97;;;4.10;;
15363;SDS011;7781;49.690;6.472;2023-05-24T04:06:01;19.20;;;4.10;;
15363;SDS011;7781;49.690;6.472;2023-05-24T04:08:32;9.60;;;4.47;;
15363;SDS011;7781;49.690;6.472;2023-05-24T04:11:03;8.57;;;4.20;;
15363;SDS011;7781;49.690;6.472;2023-05-24T04:13:32;14.57;;;5.33;;
15363;SDS011;7781;49.690;6.472;2023-05-24T04:16:04;11.37;;;4.63;;
15363;SDS011;7781;49.690;6.472;2023-05-24T04:18:35;7.30;;;4.63;;
15363;SDS011;7781;49.690;6.472;2023-05-24T04:21:05;11.20;;;4.40;;
15363;SDS011;7781;49.690;6.472;2023-05-24T04:23:34;16.13;;;3.70;;
15363;SDS011;7781;49.690;6.472;2023-05-24T04:26:03;9.80;;;4.70;;
15363;SDS011;7781;49.690;6.472;2023-05-24T04:28:33;11.40;;;3.97;;
15363;SDS011;7781;49.690;6.472;2023-05-24T04:31:03;11.60;;;4.83;;
15363;SDS011;7781;49.690;6.472;2023-05-24T04:33:33;8.87;;;4.60;;
15363;SDS011;7781;49.690;6.472;2023-05-24T04:36:01;15.67;;;5.10;;
15363;SDS011;7781;49.690;6.472;2023-05-24T04:38:31;18.87;;;5.70;;
15363;SDS011;7781;49.690;6.472;2023-05-24T04:41:00;7.27;;;4.10;;
15363;SDS011;7781;49.690;6.472;2023-05-24T04:43:29;15.37;;;5.20;;
15363;SDS011;7781;49.690;6.472;2023-05-24T04:45:57;13.33;;;4.50;;
15363;SDS011;7781;49.690;6.472;2023-05-24T04:48:27;11.57;;;3.93;;
15363;SDS011;7781;49.690;6.472;2023-05-24T04:50:58;9.40;;;3.83;;
15363;SDS011;7781;49.690;6.472;2023-05-24T04:53:27;14.27;;;4.70;;
15363;SDS011;7781;49.690;6.472;2023-05-24T04:55:56;15.57;;;4.97;;
15363;SDS011;7781;49.690;6.472;2023-05-24T04:58:24;15.83;;;4.20;;
15363;SDS011;7781;49.690;6.472;2023-05-24T05:00:53;9.63;;;4.30;;
15363;SDS011;7781;49.690;6.472;2023-05-24T05:03:21;13.33;;;3.90;;
15363;SDS011;7781;49.690;6.472;2023-05-24T05:05:52;13.67;;;4.93;;
15363;SDS011;7781;49.690;6.472;2023-05-24T05:08:20;21.77;;;4.60;;
15363;SDS011;7781;49.690;6.472;2023-05-24T05:10:49;14.23;;;4.10;;
15363;SDS011;7781;49.690;6.472;2023-05-24T05:13:18;15.93;;;4.80;;
15363;SDS011;7781;49.690;6.472;2023-05-24T05:15:48;10.13;;;4.40;;
15363;SDS011;7781;49.690;6.472;2023-05-24T05:18:17;8.90;;;3.90;;
15363;SDS011;7781;49.690;6.472;2023-05-24T05:20:49;12.60;;;4.40;;
15363;SDS011;7781;49.690;6.472;2023-05-24T05:23:22;12.30;;;4.20;;
15363;SDS011;7781;49.690;6.472;2023-05-24T05:25:54;18.17;;;3.90;;
15363;SDS011;7781;49.690;6.472;2023-05-24T05:28:24;13.30;;;4.40;;
15363;SDS011;7781;49.690;6.472;2023-05-24T05:30:54;12.90;;;3.97;;
15363;SDS011;7781;49.690;6.472;2023-05-24T05:33:25;13.10;;;4.27;;
15363;SDS011;7781;49.690;6.472;2023-05-24T05:35:55;7.80;;;3.73;;
15363;SDS011;7781;49.690;6.472;2023-05-24T05:38:24;13.93;;;4.37;;
15363;SDS011;7781;49.690;6.472;2023-05-24T05:40:53;12.00;;;5.10;;
15363;SDS011;7781;49.690;6.472;2023-05-24T05:43:22;7.17;;;3.70;;
15363;SDS011;7781;49.690;6.472;2023-05-24T05:45:51;10.20;;;3.90;;
15363;SDS011;7781;49.690;6.472;2023-05-24T05:48:20;15.20;;;4.40;;
15363;SDS011;7781;49.690;6.472;2023-05-24T05:50:51;6.60;;;3.50;;
15363;SDS011;7781;49.690;6.472;2023-05-24T05:53:21;11.60;;;3.70;;
15363;SDS011;7781;49.690;6.472;2023-05-24T05:55:51;8.53;;;3.90;;
15363;SDS011;7781;49.690;6.472;2023-05-24T05:58:19;14.87;;;3.07;;
15363;SDS011;7781;49.690;6.472;2023-05-24T06:00:48;7.37;;;3.60;;
15363;SDS011;7781;49.690;6.472;2023-05-24T06:03:17;9.40;;;3.20;;
15363;SDS011;7781;49.690;6.472;2023-05-24T06:05:47;7.63;;;3.30;;
15363;SDS011;7781;49.690;6.472;2023-05-24T06:08:17;11.47;;;3.23;;
15363;SDS011;7781;49.690;6.472;2023-05-24T06:10:47;9.87;;;3.40;;
15363;SDS011;7781;49.690;6.472;2023-05-24T06:13:18;11.30;;;3.20;;
15363;SDS011;7781;49.690;6.472;2023-05-24T06:15:47;11.93;;;2.97;;
15363;SDS011;7781;49.690;6.472;2023-05-24T06:18:18;9.60;;;3.30;;
15363;SDS011;7781;49.690;6.472;2023-05-24T06:20:48;5.67;;;2.50;;
15363;SDS011;7781;49.690;6.472;2023-05-24T06:23:16;12.93;;;2.53;;
15363;SDS011;7781;49.690;6.472;2023-05-24T06:25:46;7.57;;;3.00;;
15363;SDS011;7781;49.690;6.472;2023-05-24T06:28:16;11.93;;;2.67;;
15363;SDS011;7781;49.690;6.472;2023-05-24T06:30:45;11.03;;;3.03;;
15363;SDS011;7781;49.690;6.472;2023-05-24T06:33:13;9.00;;;2.60;;
15363;SDS011;7781;49.690;6.472;2023-05-24T06:35:42;7.03;;;2.60;;
15363;SDS011;7781;49.690;6.472;2023-05-24T06:38:11;11.50;;;2.50;;
15363;SDS011;7781;49.690;6.472;2023-05-24T06:40:40;13.43;;;2.83;;
15363;SDS011;7781;49.690;6.472;2023-05-24T06:43:12;8.93;;;2.60;;
15363;SDS011;7781;49.690;6.472;2023-05-24T06:45:41;13.13;;;2.77;;
15363;SDS011;7781;49.690;6.472;2023-05-24T06:48:10;10.20;;;2.53;;
15363;SDS011;7781;49.690;6.472;2023-05-24T06:50:38;9.23;;;2.60;;
15363;SDS011;7781;49.690;6.472;2023-05-24T06:53:08;7.80;;;2.37;;
15363;SDS011;7781;49.690;6.472;2023-05-24T06:55:37;12.50;;;2.10;;
15363;SDS011;7781;49.690;6.472;2023-05-24T06:58:05;8.90;;;2.20;;
15363;SDS011;7781;49.690;6.472;2023-05-24T07:00:41;6.43;;;2.40;;
15363;SDS011;7781;49.690;6.472;2023-05-24T07:03:12;13.03;;;3.30;;
15363;SDS011;7781;49.690;6.472;2023-05-24T07:05:41;11.60;;;2.53;;
15363;SDS011;7781;49.690;6.472;2023-05-24T07:08:09;13.07;;;2.83;;
15363;SDS011;7781;49.690;6.472;2023-05-24T07:10:37;10.23;;;2.40;;
15363;SDS011;7781;49.690;6.472;2023-05-24T07:13:06;7.67;;;2.07;;
15363;SDS011;7781;49.690;6.472;2023-05-24T07:15:40;5.63;;;2.10;;
15363;SDS011;7781;49.690;6.472;2023-05-24T07:18:09;8.63;;;2.10;;
15363;SDS011;7781;49.690;6.472;2023-05-24T07:20:38;7.07;;;1.80;;
15363;SDS011;7781;49.690;6.472;2023-05-24T07:23:08;8.27;;;2.23;;
15363;SDS011;7781;49.690;6.472;2023-05-24T07:25:37;8.23;;;1.70;;
15363;SDS011;7781;49.690;6.472;2023-05-24T07:28:06;8.13;;;1.90;;
15363;SDS011;7781;49.690;6.472;2023-05-24T07:30:35;6.83;;;2.10;;
15363;SDS011;7781;49.690;6.472;2023-05-24T07:33:07;5.80;;;1.80;;
15363;SDS011;7781;49.690;6.472;2023-05-24T07:35:36;9.40;;;2.40;;
15363;SDS011;7781;49.690;6.472;2023-05-24T07:38:05;6.67;;;1.87;;
15363;SDS011;7781;49.690;6.472;2023-05-24T07:40:34;10.73;;;2.10;;
15363;SDS011;7781;49.690;6.472;2023-05-24T07:43:04;23.07;;;3.50;;
15363;SDS011;7781;49.690;6.472;2023-05-24T07:45:34;8.67;;;1.70;;
15363;SDS011;7781;49.690;6.472;2023-05-24T07:48:03;8.50;;;2.00;;
15363;SDS011;7781;49.690;6.472;2023-05-24T07:50:34;13.67;;;2.57;;
15363;SDS011;7781;49.690;6.472;2023-05-24T07:53:02;11.63;;;2.57;;
15363;SDS011;7781;49.690;6.472;2023-05-24T07:55:33;7.60;;;1.87;;
15363;SDS011;7781;49.690;6.472;2023-05-24T07:58:02;8.00;;;2.13;;
15363;SDS011;7781;49.690;6.472;2023-05-24T08:00:31;7.37;;;2.07;;
15363;SDS011;7781;49.690;6.472;2023-05-24T08:03:01;5.10;;;1.73;;
15363;SDS011;7781;49.690;6.472;2023-05-24T08:05:34;13.10;;;2.40;;
15363;SDS011;7781;49.690;6.472;2023-05-24T08:08:02;8.67;;;2.50;;
15363;SDS011;7781;49.690;6.472;2023-05-24T08:10:31;5.97;;;2.30;;
15363;SDS011;7781;49.690;6.472;2023-05-24T08:13:00;12.07;;;2.50;;
15363;SDS011;7781;49.690;6.472;2023-05-24T08:15:31;6.13;;;1.63;;
15363;SDS011;7781;49.690;6.472;2023-05-24T08:17:59;7.77;;;2.43;;
15363;SDS011;7781;49.690;6.472;2023-05-24T08:20:31;6.97;;;1.80;;
15363;SDS011;7781;49.690;6.472;2023-05-24T08:23:03;9.80;;;2.23;;
15363;SDS011;7781;49.690;6.472;2023-05-24T08:25:32;7.90;;;2.37;;
15363;SDS011;7781;49.690;6.472;2023-05-24T08:28:01;8.50;;;2.13;;
15363;SDS011;7781;49.690;6.472;2023-05-24T08:30:32;10.27;;;2.40;;
15363;SDS011;7781;49.690;6.472;2023-05-24T08:33:01;4.23;;;2.00;;
15363;SDS011;7781;49.690;6.472;2023-05-24T08:35:32;8.50;;;1.90;;
15363;SDS011;7781;49.690;6.472;2023-05-24T08:38:01;7.97;;;2.57;;
15363;SDS011;7781;49.690;6.472;2023-05-24T08:40:33;7.90;;;2.23;;
15363;SDS011;7781;49.690;6.472;2023-05-24T08:43:02;12.03;;;2.10;;
15363;SDS011;7781;49.690;6.472;2023-05-24T08:45:37;8.73;;;3.27;;
15363;SDS011;7781;49.690;6.472;2023-05-24T08:48:06;5.33;;;2.30;;
15363;SDS011;7781;49.690;6.472;2023-05-24T08:50:36;10.73;;;2.10;;
15363;SDS011;7781;49.690;6.472;2023-05-24T08:53:08;9.57;;;2.00;;
15363;SDS011;7781;49.690;6.472;2023-05-24T08:55:38;8.70;;;1.70;;
15363;SDS011;7781;49.690;6.472;2023-05-24T08:58:09;7.10;;;2.53;;
15363;SDS011;7781;49.690;6.472;2023-05-24T09:00:38;7.67;;;1.53;;
15363;SDS011;7781;49.690;6.472;2023-05-24T09:03:08;9.83;;;2.10;;
15363;SDS011;7781;49.690;6.472;2023-05-24T09:05:37;4.63;;;1.73;;
15363;SDS011;7781;49.690;6.472;2023-05-24T09:08:09;4.03;;;1.60;;
15363;SDS011;7781;49.690;6.472;2023-05-24T09:10:39;7.80;;;3.03;;
15363;SDS011;7781;49.690;6.472;2023-05-24T09:13:21;10.70;;;2.13;;
15363;SDS011;7781;49.690;6.472;2023-05-24T09:15:51;6.13;;;1.73;;
15363;SDS011;7781;49.690;6.472;2023-05-24T09:18:19;10.67;;;2.63;;
15363;SDS011;7781;49.690;6.472;2023-05-24T09:20:49;9.33;;;2.33;;
15363;SDS011;7781;49.690;6.472;2023-05-24T09:23:20;9.70;;;2.10;;
15363;SDS011;7781;49.690;6.472;2023-05-24T09:25:51;5.53;;;2.10;;
15363;SDS011;7781;49.690;6.472;2023-05-24T09:28:21;5.13;;;1.93;;
15363;SDS011;7781;49.690;6.472;2023-05-24T09:30:57;3.20;;;2.10;;
15363;SDS011;7781;49.690;6.472;2023-05-24T09:33:33;5.57;;;2.57;;
15363;SDS011;7781;49.690;6.472;2023-05-24T09:36:04;7.37;;;2.40;;
15363;SDS011;7781;49.690;6.472;2023-05-24T09:38:35;9.13;;;2.03;;
15363;SDS011;7781;49.690;6.472;2023-05-24T09:41:04;6.50;;;2.40;;
15363;SDS011;7781;49.690;6.472;2023-05-24T09:43:45;10.30;;;2.37;;
15363;SDS011;7781;49.690;6.472;2023-05-24T09:46:15;4.60;;;2.13;;
15363;SDS011;7781;49.690;6.472;2023-05-24T09:48:55;9.13;;;1.93;;
15363;SDS011;7781;49.690;6.472;2023-05-24T09:51:24;12.20;;;2.17;;
15363;SDS011;7781;49.690;6.472;2023-05-24T09:53:57;4.63;;;1.80;;
15363;SDS011;7781;49.690;6.472;2023-05-24T09:56:28;7.00;;;2.40;;
15363;SDS011;7781;49.690;6.472;2023-05-24T09:59:03;6.90;;;2.50;;
15363;SDS011;7781;49.690;6.472;2023-05-24T10:01:33;4.13;;;2.10;;
15363;SDS011;7781;49.690;6.472;2023-05-24T10:04:02;5.17;;;1.87;;
15363;SDS011;7781;49.690;6.472;2023-05-24T10:06:36;7.73;;;2.63;;
15363;SDS011;7781;49.690;6.472;2023-05-24T10:09:10;9.70;;;2.67;;
15363;SDS011;7781;49.690;6.472;2023-05-24T10:11:39;5.87;;;2.40;;
15363;SDS011;7781;49.690;6.472;2023-05-24T10:14:08;7.63;;;2.30;;
15363;SDS011;7781;49.690;6.472;2023-05-24T10:16:37;9.07;;;2.33;;
15363;SDS011;7781;49.690;6.472;2023-05-24T10:19:06;5.40;;;2.23;;
15363;SDS011;7781;49.690;6.472;2023-05-24T10:21:35;8.40;;;2.73;;
15363;SDS011;7781;49.690;6.472;2023-05-24T10:24:08;7.53;;;2.20;;
15363;SDS011;7781;49.690;6.472;2023-05-24T10:26:41;2.43;;;1.60;;
15363;SDS011;7781;49.690;6.472;2023-05-24T10:29:15;9.03;;;2.87;;
15363;SDS011;7781;49.690;6.472;2023-05-24T10:31:51;7.60;;;2.07;;
15363;SDS011;7781;49.690;6.472;2023-05-24T10:34:20;3.03;;;2.20;;
15363;SDS011;7781;49.690;6.472;2023-05-24T10:36:50;8.10;;;2.63;;
15363;SDS011;7781;49.690;6.472;2023-05-24T10:39:21;8.40;;;2.20;;
15363;SDS011;7781;49.690;6.472;2023-05-24T10:41:54;6.47;;;2.47;;
15363;SDS011;7781;49.690;6.472;2023-05-24T10:44:26;5.70;;;2.60;;
15363;SDS011;7781;49.690;6.472;2023-05-24T10:47:01;7.47;;;2.57;;
15363;SDS011;7781;49.690;6.472;2023-05-24T10:49:35;10.80;;;2.97;;
15363;SDS011;7781;49.690;6.472;2023-05-24T10:52:07;3.93;;;2.27;;
15363;SDS011;7781;49.690;6.472;2023-05-24T10:54:39;6.47;;;2.80;;
15363;SDS011;7781;49.690;6.472;2023-05-24T10:57:31;9.20;;;3.00;;
15363;SDS011;7781;49.690;6.472;2023-05-24T11:03:00;4.60;;;2.50;;
15363;SDS011;7781;49.690;6.472;2023-05-24T11:05:47;13.03;;;3.10;;
15363;SDS011;7781;49.690;6.472;2023-05-24T11:08:21;5.70;;;2.40;;
15363;SDS011;7781;49.690;6.472;2023-05-24T11:11:07;10.23;;;2.97;;
15363;SDS011;7781;49.690;6.472;2023-05-24T11:13:40;9.60;;;2.70;;
15363;SDS011;7781;49.690;6.472;2023-05-24T11:16:11;7.40;;;2.70;;
15363;SDS011;7781;49.690;6.472;2023-05-24T11:19:11;5.13;;;2.60;;
15363;SDS011;7781;49.690;6.472;2023-05-24T11:21:44;6.10;;;2.60;;
15363;SDS011;7781;49.690;6.472;2023-05-24T11:24:15;11.57;;;3.03;;
15363;SDS011;7781;49.690;6.472;2023-05-24T11:26:47;9.17;;;2.83;;
15363;SDS011;7781;49.690;6.472;2023-05-24T11:29:17;7.13;;;2.70;;
15363;SDS011;7781;49.690;6.472;2023-05-24T11:31:48;9.57;;;3.00;;
15363;SDS011;7781;49.690;6.472;2023-05-24T11:34:18;5.93;;;3.00;;
15363;SDS011;7781;49.690;6.472;2023-05-24T11:36:47;8.00;;;2.93;;
15363;SDS011;7781;49.690;6.472;2023-05-24T11:39:16;6.60;;;3.07;;
15363;SDS011;7781;49.690;6.472;2023-05-24T11:41:46;11.30;;;3.30;;
15363;SDS011;7781;49.690;6.472;2023-05-24T11:44:16;5.70;;;3.17;;
15363;SDS011;7781;49.690;6.472;2023-05-24T11:46:45;7.50;;;3.17;;
15363;SDS011;7781;49.690;6.472;2023-05-24T11:49:16;9.57;;;3.67;;
15363;SDS011;7781;49.690;6.472;2023-05-24T11:51:45;7.17;;;3.23;;
15363;SDS011;7781;49.690;6.472;2023-05-24T11:54:14;11.77;;;3.20;;
15363;SDS011;7781;49.690;6.472;2023-05-24T11:56:50;8.67;;;2.80;;
15363;SDS011;7781;49.690;6.472;2023-05-24T11:59:21;6.37;;;3.10;;
15363;SDS011;7781;49.690;6.472;2023-05-24T12:01:55;8.40;;;3.20;;
15363;SDS011;7781;49.690;6.472;2023-05-24T12:04:26;9.10;;;2.87;;
15363;SDS011;7781;49.690;6.472;2023-05-24T12:06:56;9.87;;;3.47;;
15363;SDS011;7781;49.690;6.472;2023-05-24T12:09:27;6.93;;;2.60;;
15363;SDS011;7781;49.690;6.472;2023-05-24T12:12:00;10.07;;;3.87;;
15363;SDS011;7781;49.690;6.472;2023-05-24T12:14:34;8.97;;;3.33;;
15363;SDS011;7781;49.690;6.472;2023-05-24T12:17:02;8.20;;;3.00;;
15363;SDS011;7781;49.690;6.472;2023-05-24T12:19:32;10.90;;;3.60;;
15363;SDS011;7781;49.690;6.472;2023-05-24T12:22:02;9.90;;;2.67;;
15363;SDS011;7781;49.690;6.472;2023-05-24T12:24:33;12.23;;;3.23;;
15363;SDS011;7781;49.690;6.472;2023-05-24T12:27:06;12.87;;;3.00;;
15363;SDS011;7781;49.690;6.472;2023-05-24T12:29:37;8.70;;;3.50;;
15363;SDS011;7781;49.690;6.472;2023-05-24T12:32:08;8.90;;;3.70;;
15363;SDS011;7781;49.690;6.472;2023-05-24T12:34:41;5.87;;;3.40;;
15363;SDS011;7781;49.690;6.472;2023-05-24T12:37:11;6.40;;;3.57;;
15363;SDS011;7781;49.690;6.472;2023-05-24T12:39:41;5.97;;;3.10;;
15363;SDS011;7781;49.690;6.472;2023-05-24T12:42:13;6.60;;;3.30;;
15363;SDS011;7781;49.690;6.472;2023-05-24T12:44:42;6.87;;;3.77;;
15363;SDS011;7781;49.690;6.472;2023-05-24T12:47:11;11.23;;;3.90;;
15363;SDS011;7781;49.690;6.472;2023-05-24T12:49:40;9.07;;;4.00;;
15363;SDS011;7781;49.690;6.472;2023-05-24T12:52:09;9.23;;;4.27;;
15363;SDS011;7781;49.690;6.472;2023-05-24T12:54:39;10.83;;;3.97;;
15363;SDS011;7781;49.690;6.472;2023-05-24T12:57:07;11.03;;;4.23;;
15363;SDS011;7781;49.690;6.472;2023-05-24T12:59:38;11.43;;;5.00;;
15363;SDS011;7781;49.690;6.472;2023-05-24T13:02:07;11.87;;;4.43;;
15363;SDS011;7781;49.690;6.472;2023-05-24T13:04:36;13.20;;;5.60;;
15363;SDS011;7781;49.690;6.472;2023-05-24T13:07:05;10.87;;;4.53;;
15363;SDS011;7781;49.690;6.472;2023-05-24T13:09:34;7.47;;;4.70;;
15363;SDS011;7781;49.690;6.472;2023-05-24T13:12:03;9.60;;;4.53;;
15363;SDS011;7781;49.690;6.472;2023-05-24T13:14:34;14.90;;;5.03;;
15363;SDS011;7781;49.690;6.472;2023-05-24T13:17:05;15.60;;;6.40;;
15363;SDS011;7781;49.690;6.472;2023-05-24T13:19:34;12.93;;;5.43;;
15363;SDS011;7781;49.690;6.472;2023-05-24T13:22:03;10.00;;;6.60;;
15363;SDS011;7781;49.690;6.472;2023-05-24T13:24:31;16.40;;;5.17;;
15363;SDS011;7781;49.690;6.472;2023-05-24T13:27:00;16.20;;;6.00;;
15363;SDS011;7781;49.690;6.472;2023-05-24T13:29:30;9.37;;;5.00;;
15363;SDS011;7781;49.690;6.472;2023-05-24T13:32:12;6.43;;;4.60;;
15363;SDS011;7781;49.690;6.472;2023-05-24T13:34:41;10.93;;;6.20;;
15363;SDS011;7781;49.690;6.472;2023-05-24T13:37:10;9.80;;;4.60;;
15363;SDS011;7781;49.690;6.472;2023-05-24T13:39:39;12.13;;;5.20;;
15363;SDS011;7781;49.690;6.472;2023-05-24T13:42:07;14.90;;;5.00;;
15363;SDS011;7781;49.690;6.472;2023-05-24T13:44:36;8.93;;;4.10;;
15363;SDS011;7781;49.690;6.472;2023-05-24T13:47:05;13.20;;;4.90;;
15363;SDS011;7781;49.690;6.472;2023-05-24T13:49:37;12.43;;;4.80;;
15363;SDS011;7781;49.690;6.472;2023-05-24T13:52:06;10.70;;;4.37;;
15363;SDS011;7781;49.690;6.472;2023-05-24T13:54:35;18.33;;;3.93;;
15363;SDS011;7781;49.690;6.472;2023-05-24T13:57:06;7.00;;;3.73;;
15363;SDS011;7781;49.690;6.472;2023-05-24T13:59:35;15.40;;;4.90;;
15363;SDS011;7781;49.690;6.472;2023-05-24T14:02:04;7.93;;;3.77;;
15363;SDS011;7781;49.690;6.472;2023-05-24T14:04:33;12.33;;;3.83;;
15363;SDS011;7781;49.690;6.472;2023-05-24T14:07:04;10.70;;;3.40;;
15363;SDS011;7781;49.690;6.472;2023-05-24T14:09:35;8.60;;;3.13;;
15363;SDS011;7781;49.690;6.472;2023-05-24T14:12:04;11.00;;;3.50;;
15363;SDS011;7781;49.690;6.472;2023-05-24T14:14:34;10.03;;;3.20;;
15363;SDS011;7781;49.690;6.472;2023-05-24T14:17:06;10.13;;;3.60;;
15363;SDS011;7781;49.690;6.472;2023-05-24T14:19:38;8.77;;;3.10;;
15363;SDS011;7781;49.690;6.472;2023-05-24T14:22:07;8.10;;;3.20;;
15363;SDS011;7781;49.690;6.472;2023-05-24T14:24:37;8.10;;;3.30;;
15363;SDS011;7781;49.690;6.472;2023-05-24T14:27:06;6.00;;;3.30;;
15363;SDS011;7781;49.690;6.472;2023-05-24T14:29:35;4.67;;;2.40;;
15363;SDS011;7781;49.690;6.472;2023-05-24T14:32:09;8.03;;;3.17;;
15363;SDS011;7781;49.690;6.472;2023-05-24T14:34:39;5.57;;;2.83;;
15363;SDS011;7781;49.690;6.472;2023-05-24T14:37:08;9.00;;;2.83;;
15363;SDS011;7781;49.690;6.472;2023-05-24T14:39:37;8.80;;;3.30;;
15363;SDS011;7781;49.690;6.472;2023-05-24T14:42:06;9.30;;;2.97;;
15363;SDS011;7781;49.690;6.472;2023-05-24T14:44:35;8.40;;;3.03;;
15363;SDS011;7781;49.690;6.472;2023-05-24T14:47:04;7.27;;;3.33;;
15363;SDS011;7781;49.690;6.472;2023-05-24T14:49:36;13.40;;;2.70;;
15363;SDS011;7781;49.690;6.472;2023-05-24T14:52:06;12.60;;;3.20;;
15363;SDS011;7781;49.690;6.472;2023-05-24T14:54:35;10.80;;;3.40;;
15363;SDS011;7781;49.690;6.472;2023-05-24T14:57:04;10.10;;;2.80;;
15363;SDS011;7781;49.690;6.472;2023-05-24T14:59:33;5.00;;;2.73;;
15363;SDS011;7781;49.690;6.472;2023-05-24T15:02:02;6.60;;;3.03;;
15363;SDS011;7781;49.690;6.472;2023-05-24T15:04:31;8.57;;;3.27;;
15363;SDS011;7781;49.690;6.472;2023-05-24T15:07:00;6.97;;;3.20;;
15363;SDS011;7781;49.690;6.472;2023-05-24T15:09:30;11.93;;;3.57;;
15363;SDS011;7781;49.690;6.472;2023-05-24T15:11:59;4.63;;;2.80;;
15363;SDS011;7781;49.690;6.472;2023-05-24T15:14:30;4.07;;;2.53;;
15363;SDS011;7781;49.690;6.472;2023-05-24T15:17:00;7.00;;;2.20;;
15363;SDS011;7781;49.690;6.472;2023-05-24T15:19:29;12.40;;;2.83;;